Time;durP1;ratioP1;P1;durP2;ratioP2;P2;SDS_P1;SDS_P2;PMS_P1;PMS_P2;Temp;Humidity;BMP_temperature;BMP_pressure;BME280_temperature;BME280_humidity;BME280_pressure;Samples;Min_cycle;Max_cycle;Signal;HPM_P1;HPM_P2
2022/01/03 00:00:15;;;;;;;55.30;30.00;;;230.70;2252.80;;;;;;5075356;28;20012;-75
2022/01/03 00:02:42;;;;;;;51.28;28.52;;;230.90;2252.80;;;;;;5084491;28;20039;-75
2022/01/03 00:05:10;;;;;;;56.88;30.35;;;231.00;2252.80;;;;;;5075248;28;20017;-73
2022/01/03 00:07:43;;;;;;;53.42;30.27;;;231.00;2252.80;;;;;;5057257;28;20093;-75
2022/01/03 00:10:10;;;;;;;57.67;32.63;;;231.10;2252.80;;;;;;5056991;28;20572;-76
2022/01/03 00:12:37;;;;;;;51.75;30.27;;;231.20;2252.80;;;;;;5057774;28;20028;-78
2022/01/03 00:15:05;;;;;;;54.42;32.63;;;231.20;2252.80;;;;;;5077172;28;20016;-77
2022/01/03 00:17:31;;;;;;;52.83;31.83;;;231.20;2252.80;;;;;;5068082;28;20113;-77
2022/01/03 00:19:57;;;;;;;52.30;30.95;;;231.20;2252.80;;;;;;5084400;28;20479;-74
2022/01/03 00:22:24;;;;;;;53.92;31.08;;;231.10;2252.80;;;;;;5085299;28;20024;-76
2022/01/03 00:25:03;;;;;;;53.25;32.45;;;231.20;2252.80;;;;;;5068701;28;20070;-83
2022/01/03 00:27:43;;;;;;;61.75;32.90;;;231.10;2252.80;;;;;;5083594;28;20048;-75
2022/01/03 00:30:09;;;;;;;49.92;31.77;;;231.10;2252.80;;;;;;5071522;28;20073;-78
2022/01/03 00:32:37;;;;;;;52.38;32.38;;;231.20;2252.80;;;;;;5093980;28;20436;-75
2022/01/03 00:35:04;;;;;;;57.25;33.22;;;231.20;2252.80;;;;;;5083119;28;20110;-78
2022/01/03 00:37:34;;;;;;;45.92;29.38;;;231.20;2252.80;;;;;;5066026;28;20492;-78
2022/01/03 00:40:02;;;;;;;55.83;31.70;;;231.30;2252.80;;;;;;5069249;28;20032;-77
2022/01/03 00:42:27;;;;;;;46.45;29.35;;;231.30;2252.80;;;;;;5085408;28;20012;-75
2022/01/03 00:44:53;;;;;;;46.95;30.13;;;231.30;2252.80;;;;;;5064748;28;20018;-80
2022/01/03 00:47:19;;;;;;;;;;;231.30;2252.80;;;;;;5083442;28;20024;-75
2022/01/03 00:49:45;;;;;;;57.65;31.10;;;256.00;2252.80;;;;;;5085663;28;19904;-78
2022/01/03 00:52:12;;;;;;;49.08;31.05;;;256.00;2252.80;;;;;;5084058;28;20017;-73
2022/01/03 00:54:38;;;;;;;55.38;31.77;;;256.00;2252.80;;;;;;5068736;28;20024;-81
2022/01/03 00:57:10;;;;;;;57.03;33.25;;;256.00;2252.80;;;;;;5083368;28;20111;-74
2022/01/03 00:59:43;;;;;;;56.92;34.05;;;256.00;2252.80;;;;;;5070662;28;20008;-75
2022/01/03 01:02:13;;;;;;;61.72;34.47;;;256.00;2252.80;;;;;;5087406;28;20016;-81
2022/01/03 01:04:45;;;;;;;60.38;34.10;;;231.30;2252.80;;;;;;5085044;28;20012;-80
2022/01/03 01:07:11;;;;;;;63.15;36.80;;;256.10;2252.80;;;;;;5085037;28;20028;-81
2022/01/03 01:09:38;;;;;;;62.85;35.65;;;256.20;2252.80;;;;;;5084550;28;20024;-82
2022/01/03 01:12:06;;;;;;;62.15;34.22;;;256.30;2252.80;;;;;;5083242;28;20199;-81
2022/01/03 01:14:32;;;;;;;52.83;32.53;;;256.30;2252.80;;;;;;5083769;28;20479;-74
2022/01/03 01:17:01;;;;;;;52.20;31.80;;;256.30;2252.80;;;;;;5065077;28;20036;-81
2022/01/03 01:19:28;;;;;;;53.13;31.65;;;256.30;2252.80;;;;;;5082996;28;20464;-77
2022/01/03 01:21:54;;;;;;;54.10;33.90;;;256.20;2252.80;;;;;;5083655;28;20031;-82
2022/01/03 01:24:23;;;;;;;54.38;32.35;;;230.90;2252.80;;;;;;5065127;28;20407;-78
2022/01/03 01:29:36;;;;;;;63.65;36.08;;;230.90;2252.80;;;;;;5084628;28;20028;-79
2022/01/03 01:32:04;;;;;;;60.15;37.28;;;230.90;2252.80;;;;;;5085106;28;20088;-75
2022/01/03 01:34:34;;;;;;;63.83;37.72;;;231.10;2252.80;;;;;;5083143;28;20027;-79
2022/01/03 01:37:01;;;;;;;61.67;36.10;;;231.20;2252.80;;;;;;5064650;28;20028;-79
2022/01/03 01:39:30;;;;;;;55.97;35.03;;;231.10;2252.80;;;;;;5088021;28;20081;-79
2022/01/03 01:42:03;;;;;;;63.65;36.97;;;231.20;2252.80;;;;;;5085100;28;20017;-74
2022/01/03 01:44:32;;;;;;;59.10;37.03;;;231.20;2252.80;;;;;;5081454;28;20454;-76
2022/01/03 01:47:03;;;;;;;73.65;40.83;;;231.30;2252.80;;;;;;5083790;28;20365;-79
2022/01/03 01:49:31;;;;;;;66.93;39.13;;;231.20;2252.80;;;;;;5081800;28;20047;-78
2022/01/03 01:52:02;;;;;;;69.72;41.30;;;231.10;2252.80;;;;;;5065607;28;20033;-78
2022/01/03 01:54:31;;;;;;;69.60;41.35;;;231.10;2252.80;;;;;;5066155;28;20024;-78
2022/01/03 01:57:03;;;;;;;67.47;39.42;;;231.10;2252.80;;;;;;5065181;28;20062;-79
2022/01/03 01:59:42;;;;;;;64.00;38.20;;;231.00;2252.80;;;;;;5082251;28;20021;-75
2022/01/03 02:02:11;;;;;;;59.42;35.78;;;231.00;2252.80;;;;;;5064365;28;20045;-78
2022/01/03 02:04:46;;;;;;;75.70;40.03;;;231.00;2252.80;;;;;;5082112;28;20020;-74
2022/01/03 02:07:36;;;;;;;65.15;39.67;;;231.00;2252.80;;;;;;5082469;28;20020;-75
2022/01/03 02:10:14;;;;;;;64.32;37.97;;;231.00;2252.80;;;;;;5066113;28;20069;-78
2022/01/03 02:12:46;;;;;;;55.85;34.25;;;230.50;2252.80;;;;;;5062587;28;20115;-75
2022/01/03 02:15:15;;;;;;;54.97;32.50;;;230.50;2252.80;;;;;;5064244;28;20021;-75
2022/01/03 02:17:46;;;;;;;61.58;37.42;;;230.50;2252.80;;;;;;5064685;28;20123;-81
2022/01/03 02:20:14;;;;;;;75.35;41.22;;;230.60;2252.80;;;;;;5084590;28;20131;-75
2022/01/03 02:22:42;;;;;;;74.80;43.40;;;230.60;2252.80;;;;;;5063483;28;20052;-79
2022/01/03 02:25:10;;;;;;;73.82;43.47;;;230.50;2252.80;;;;;;5084410;28;20023;-79
2022/01/03 02:27:37;;;;;;;63.38;39.88;;;230.60;2252.80;;;;;;5065099;28;20155;-81
2022/01/03 02:30:09;;;;;;;70.82;43.70;;;230.40;2252.80;;;;;;5084862;28;20061;-74
2022/01/03 02:32:36;;;;;;;72.07;42.70;;;230.50;2252.80;;;;;;5069209;28;20462;-75
2022/01/03 02:35:02;;;;;;;67.30;39.50;;;205.60;2252.80;;;;;;5081435;28;20012;-81
2022/01/03 02:37:28;;;;;;;76.78;43.30;;;205.60;2252.80;;;;;;5084932;28;20040;-80
2022/01/03 02:39:55;;;;;;;73.55;44.15;;;205.30;2252.80;;;;;;5085482;28;20043;-80
2022/01/03 02:42:24;;;;;;;81.85;49.58;;;205.50;2252.80;;;;;;5068161;28;20024;-80
2022/01/03 02:45:20;;;;;;;89.55;49.40;;;205.40;2252.80;;;;;;5084728;28;20012;-81
2022/01/03 02:47:48;;;;;;;80.28;48.20;;;205.30;2252.80;;;;;;5085443;28;20021;-80
2022/01/03 02:50:16;;;;;;;76.57;45.58;;;205.20;2252.80;;;;;;5065914;28;20054;-78
2022/01/03 02:52:42;;;;;;;85.88;45.38;;;205.10;2252.80;;;;;;5083171;28;20017;-80
2022/01/03 02:55:09;;;;;;;;;;;205.30;2252.80;;;;;;5084806;28;20052;-78
2022/01/03 02:57:58;;;;;;;67.90;38.35;;;205.50;2252.80;;;;;;5067724;28;19916;-78
2022/01/03 03:00:30;;;;;;;81.45;42.95;;;205.20;2252.80;;;;;;5069209;28;20035;-77
2022/01/03 03:02:57;;;;;;;74.00;42.80;;;205.00;2252.80;;;;;;5067422;28;20115;-79
2022/01/03 03:05:23;;;;;;;67.15;41.00;;;205.20;2252.80;;;;;;5083658;28;20028;-79
2022/01/03 03:07:49;;;;;;;68.18;39.95;;;205.40;2252.80;;;;;;5084657;28;20060;-79
2022/01/03 03:10:18;;;;;;;75.85;43.10;;;205.70;2252.80;;;;;;5087491;28;20031;-75
2022/01/03 03:12:46;;;;;;;71.00;40.10;;;205.50;2252.80;;;;;;5085028;28;20020;-80
2022/01/03 03:15:14;;;;;;;73.75;41.28;;;205.70;2252.80;;;;;;5085483;28;20115;-79
2022/01/03 03:17:41;;;;;;;70.95;40.70;;;230.40;2252.80;;;;;;5087373;28;20039;-77
2022/01/03 03:20:11;;;;;;;66.45;39.10;;;230.50;2252.80;;;;;;5087475;28;20115;-77
2022/01/03 03:22:38;;;;;;;64.43;38.45;;;230.60;2252.80;;;;;;5066831;28;20425;-78
2022/01/03 03:25:11;;;;;;;65.95;39.35;;;230.60;2252.80;;;;;;5089333;28;20026;-79
2022/01/03 03:27:44;;;;;;;65.25;36.53;;;230.60;2252.80;;;;;;5070610;28;20051;-74
2022/01/03 03:30:35;;;;;;;66.78;40.22;;;230.60;2252.80;;;;;;5072129;28;20025;-78
2022/01/03 03:33:11;;;;;;;65.90;37.10;;;230.60;2252.80;;;;;;5096125;28;20077;-74
2022/01/03 03:35:37;;;;;;;64.72;39.40;;;205.70;2252.80;;;;;;5077824;28;20016;-80
2022/01/03 03:38:04;;;;;;;60.92;37.95;;;205.70;2252.80;;;;;;5085639;28;20467;-75
2022/01/03 03:40:30;;;;;;;65.53;38.92;;;205.70;2252.80;;;;;;5069536;28;20024;-80
2022/01/03 03:42:56;;;;;;;;;;;230.40;2252.80;;;;;;5075663;28;20024;-75
2022/01/03 03:45:22;;;;;;;67.15;37.42;;;230.40;2252.80;;;;;;5077220;28;19904;-76
2022/01/03 03:47:48;;;;;;;68.38;39.65;;;205.70;2252.80;;;;;;5072260;28;20161;-78
2022/01/03 03:50:13;;;;;;;;;;;205.70;2252.80;;;;;;5084874;28;20099;-74
2022/01/03 03:52:39;;;;;;;66.40;38.05;;;205.70;2252.80;;;;;;5084523;28;19904;-75
2022/01/03 03:55:05;;;;;;;;;;;230.40;2252.80;;;;;;5087929;28;20416;-74
2022/01/03 03:57:31;;;;;;;56.93;32.93;;;205.60;2252.80;;;;;;5087277;28;19913;-79
2022/01/03 03:59:57;;;;;;;;;;;205.20;2252.80;;;;;;5069609;28;20387;-74
2022/01/03 04:02:23;;;;;;;68.68;37.97;;;205.20;2252.80;;;;;;5067482;28;19911;-78
2022/01/03 04:04:48;;;;;;;;;;;205.10;2252.80;;;;;;5068988;28;20387;-74
2022/01/03 04:07:14;;;;;;;64.53;37.13;;;205.10;2252.80;;;;;;5084310;28;19961;-75
2022/01/03 04:09:40;;;;;;;;;;;204.90;2252.80;;;;;;5089130;28;20103;-78
2022/01/03 04:12:06;;;;;;;70.72;42.33;;;204.90;2252.80;;;;;;5086537;28;20347;-75
2022/01/03 04:14:32;;;;;;;81.32;44.30;;;204.80;2252.80;;;;;;5085974;28;20070;-75
2022/01/03 04:16:57;;;;;;;;;;;180.10;2252.80;;;;;;5065334;28;20116;-77
2022/01/03 04:19:23;;;;;;;72.82;42.22;;;179.90;2252.80;;;;;;5085467;28;19982;-80
2022/01/03 04:21:48;;;;;;;;;;;179.90;2252.80;;;;;;5066324;28;20059;-74
2022/01/03 04:24:14;;;;;;;68.32;39.72;;;180.00;2252.80;;;;;;5083522;28;19943;-80
2022/01/03 04:26:40;;;;;;;;;;;180.10;2252.80;;;;;;5087970;28;20525;-74
2022/01/03 04:29:06;;;;;;;73.55;41.10;;;180.00;2252.80;;;;;;5090302;28;20530;-74
2022/01/03 04:31:32;;;;;;;78.38;41.30;;;179.70;2252.80;;;;;;5086294;28;20016;-80
2022/01/03 04:33:59;;;;;;;74.43;42.17;;;179.90;2252.80;;;;;;5088518;28;20024;-80
2022/01/03 04:36:26;;;;;;;72.82;43.70;;;180.10;2252.80;;;;;;5066256;28;20040;-74
2022/01/03 04:38:52;;;;;;;70.10;43.72;;;180.10;2252.80;;;;;;5083512;28;20090;-79
2022/01/03 04:41:18;;;;;;;;;;;180.10;2252.80;;;;;;5087209;28;20492;-79
2022/01/03 04:43:44;;;;;;;75.68;43.65;;;204.90;2252.80;;;;;;5068633;28;19904;-74
2022/01/03 04:46:10;;;;;;;;;;;180.10;2252.80;;;;;;5089671;28;20047;-80
2022/01/03 04:48:40;;;;;;;74.30;41.78;;;204.80;2252.80;;;;;;5083687;28;19912;-74
2022/01/03 04:51:07;;;;;;;73.22;42.78;;;205.00;2252.80;;;;;;5068757;28;20028;-75
2022/01/03 04:53:37;;;;;;;79.43;45.05;;;205.20;2252.80;;;;;;5065115;28;20026;-80
2022/01/03 04:56:03;;;;;;;75.85;42.50;;;205.30;2252.80;;;;;;5065052;28;20016;-75
2022/01/03 04:58:29;;;;;;;73.18;43.55;;;205.30;2252.80;;;;;;5085360;28;20024;-81
2022/01/03 05:00:55;;;;;;;;;;;205.40;2252.80;;;;;;5083564;28;20392;-78
2022/01/03 05:03:20;;;;;;;64.13;38.35;;;205.50;2252.80;;;;;;5086207;28;19904;-80
2022/01/03 05:05:46;;;;;;;;;;;205.40;2252.80;;;;;;5066287;28;20024;-75
2022/01/03 05:08:12;;;;;;;66.60;39.03;;;205.50;2252.80;;;;;;5072954;28;19912;-81
2022/01/03 05:10:37;;;;;;;;;;;205.30;2252.80;;;;;;5065017;28;20028;-74
2022/01/03 05:13:03;;;;;;;65.95;39.55;;;205.30;2252.80;;;;;;5085905;28;19957;-78
2022/01/03 05:15:29;;;;;;;;;;;205.30;2252.80;;;;;;5065907;28;20129;-74
2022/01/03 05:17:54;;;;;;;67.90;40.67;;;205.40;2252.80;;;;;;5066855;28;19916;-78
2022/01/03 05:20:20;;;;;;;;;;;205.30;2252.80;;;;;;5082656;28;20442;-78
2022/01/03 05:22:46;;;;;;;75.93;42.22;;;205.30;2252.80;;;;;;5065639;28;19911;-74
2022/01/03 05:25:11;;;;;;;;;;;205.30;2252.80;;;;;;5086279;28;20024;-74
2022/01/03 05:27:38;;;;;;;80.15;44.55;;;205.20;2252.80;;;;;;5082645;28;19916;-78
2022/01/03 05:30:05;;;;;;;88.07;48.15;;;205.20;2252.80;;;;;;5067096;28;20033;-77
2022/01/03 05:32:30;;;;;;;83.45;47.83;;;205.10;2252.80;;;;;;5083127;28;20024;-78
2022/01/03 05:34:56;;;;;;;;;;;205.10;2252.80;;;;;;5085660;28;20357;-75
2022/01/03 05:37:22;;;;;;;72.07;43.47;;;205.20;2252.80;;;;;;5085247;28;19955;-75
2022/01/03 05:39:48;;;;;;;79.18;48.13;;;205.20;2252.80;;;;;;5085433;28;20035;-74
2022/01/03 05:42:13;;;;;;;;;;;205.10;2252.80;;;;;;5082903;28;20020;-78
2022/01/03 05:44:39;;;;;;;80.80;45.72;;;205.10;2252.80;;;;;;5087553;28;19957;-77
2022/01/03 05:47:05;;;;;;;;;;;205.10;2252.80;;;;;;5087359;28;20016;-75
2022/01/03 05:49:30;;;;;;;76.75;47.35;;;205.20;2252.80;;;;;;5083757;28;20352;-77
2022/01/03 05:51:56;;;;;;;;;;;205.20;2252.80;;;;;;5088165;28;20016;-74
2022/01/03 05:54:22;;;;;;;80.88;47.97;;;205.20;2252.80;;;;;;5081661;28;19956;-74
2022/01/03 05:56:47;;;;;;;;;;;205.20;2252.80;;;;;;5084713;28;20107;-74
2022/01/03 05:59:13;;;;;;;80.22;48.45;;;205.20;2252.80;;;;;;5084140;28;19904;-75
2022/01/03 06:01:40;;;;;;;;;;;205.20;2252.80;;;;;;5082316;28;20025;-74
2022/01/03 06:04:24;;;;;;;61.30;38.03;;;205.20;2252.80;;;;;;5067153;28;19904;-74
2022/01/03 06:07:10;;;;;;;73.60;43.38;;;205.30;2252.80;;;;;;5066039;28;20032;-76
2022/01/03 06:09:37;;;;;;;68.30;41.33;;;205.30;2252.80;;;;;;5092177;28;20104;-77
2022/01/03 06:12:04;;;;;;;70.57;42.60;;;205.30;2252.80;;;;;;5075211;28;20026;-74
2022/01/03 06:14:30;;;;;;;79.43;44.03;;;205.20;2252.80;;;;;;5069810;28;20116;-77
2022/01/03 06:16:55;;;;;;;;;;;205.20;2252.80;;;;;;5084572;28;20074;-74
2022/01/03 06:19:22;;;;;;;70.30;42.08;;;205.20;2252.80;;;;;;5063653;28;20382;-76
2022/01/03 06:21:48;;;;;;;68.25;41.70;;;205.20;2252.80;;;;;;5066216;28;20032;-74
2022/01/03 06:24:15;;;;;;;;;;;205.30;2252.80;;;;;;5085175;28;20039;-76
2022/01/03 06:26:42;;;;;;;47.88;29.73;;;205.30;2252.80;;;;;;5064072;28;19905;-78
2022/01/03 06:29:13;;;;;;;65.25;40.40;;;205.30;2252.80;;;;;;5085199;28;20024;-75
2022/01/03 06:31:39;;;;;;;74.03;44.05;;;205.30;2252.80;;;;;;5084273;28;20021;-75
2022/01/03 06:34:05;;;;;;;72.18;45.33;;;205.20;2252.80;;;;;;5082571;28;20056;-74
2022/01/03 06:36:31;;;;;;;69.68;43.67;;;205.30;2252.80;;;;;;5066686;28;20062;-74
2022/01/03 06:38:57;;;;;;;;;;;205.20;2252.80;;;;;;5082225;28;20020;-78
2022/01/03 06:41:24;;;;;;;78.38;44.45;;;205.10;2252.80;;;;;;5065689;28;19969;-75
2022/01/03 06:43:50;;;;;;;81.97;48.63;;;205.10;2252.80;;;;;;5064886;28;20035;-74
2022/01/03 06:46:17;;;;;;;75.88;45.53;;;205.20;2252.80;;;;;;5081176;28;20056;-74
2022/01/03 06:48:46;;;;;;;85.32;48.35;;;205.00;2252.80;;;;;;5083545;28;20479;-74
2022/01/03 06:51:12;;;;;;;78.18;47.97;;;205.00;2252.80;;;;;;5080987;28;20472;-78
2022/01/03 06:53:39;;;;;;;87.25;52.28;;;205.00;2252.80;;;;;;5065949;28;20459;-79
2022/01/03 06:56:04;;;;;;;;;;;179.70;2252.80;;;;;;5081754;28;20016;-75
2022/01/03 06:58:31;;;;;;;79.57;48.08;;;180.00;2252.80;;;;;;5063461;28;19908;-79
2022/01/03 07:00:57;;;;;;;82.63;47.42;;;180.10;2252.80;;;;;;5087135;28;20035;-77
2022/01/03 07:03:23;;;;;;;;;;;180.10;2252.80;;;;;;5068238;28;20483;-74
2022/01/03 07:05:49;;;;;;;76.45;47.40;;;179.80;2252.80;;;;;;5088329;28;19984;-79
2022/01/03 07:08:14;;;;;;;;;;;179.80;2252.80;;;;;;5086115;28;20027;-76
2022/01/03 07:10:40;;;;;;;77.15;45.50;;;180.00;2252.80;;;;;;5087257;28;19908;-75
2022/01/03 07:13:06;;;;;;;;;;;180.10;2252.80;;;;;;5086443;28;20036;-74
2022/01/03 07:21:01;;;;;;;82.93;51.40;;;205.00;2252.80;;;;;;5087086;28;20169;-77
2022/01/03 07:23:27;;;;;;;;;;;204.80;2252.80;;;;;;5067793;28;20523;-76
2022/01/03 07:25:53;;;;;;;77.88;46.83;;;204.80;2252.80;;;;;;5067217;28;19991;-73
2022/01/03 07:28:19;;;;;;;77.75;50.20;;;205.00;2252.80;;;;;;5084852;28;20045;-78
2022/01/03 07:30:45;;;;;;;77.15;49.35;;;205.20;2252.80;;;;;;5086884;28;20056;-77
2022/01/03 07:33:11;;;;;;;107.13;59.08;;;205.30;2252.80;;;;;;5084203;28;20524;-78
2022/01/03 07:35:37;;;;;;;98.28;60.13;;;205.40;2252.80;;;;;;5087057;28;20056;-80
2022/01/03 07:38:03;;;;;;;;;;;205.50;2252.80;;;;;;5087433;28;20064;-74
2022/01/03 07:40:29;;;;;;;102.00;60.97;;;205.60;2252.80;;;;;;5087086;28;19915;-74
2022/01/03 07:42:56;;;;;;;97.60;56.53;;;205.70;2252.80;;;;;;5086169;28;20090;-74
2022/01/03 07:45:22;;;;;;;110.95;58.65;;;230.40;2252.80;;;;;;5084579;28;20024;-78
2022/01/03 07:47:48;;;;;;;;;;;230.40;2252.80;;;;;;5068835;28;20069;-78
2022/01/03 07:50:13;;;;;;;95.95;54.75;;;230.40;2252.80;;;;;;5086032;28;19940;-73
2022/01/03 07:52:39;;;;;;;;;;;230.40;2252.80;;;;;;5087837;28;20032;-75
2022/01/03 07:55:07;;;;;;;92.18;55.08;;;230.60;2252.80;;;;;;5084094;28;19908;-78
2022/01/03 07:57:33;;;;;;;85.57;53.83;;;230.60;2252.80;;;;;;5085758;28;20028;-74
2022/01/03 07:59:59;;;;;;;85.80;54.25;;;230.70;2252.80;;;;;;5084841;28;20122;-80
2022/01/03 08:02:25;;;;;;;80.75;52.58;;;230.80;2252.80;;;;;;5084545;28;20138;-80
2022/01/03 08:04:50;;;;;;;;;;;230.90;2252.80;;;;;;5086524;28;20020;-85
2022/01/03 08:07:16;;;;;;;85.28;48.70;;;231.10;2252.80;;;;;;5063436;28;19964;-75
2022/01/03 08:09:42;;;;;;;;;;;231.20;2252.80;;;;;;5067256;28;20025;-81
2022/01/03 08:12:09;;;;;;;73.90;44.67;;;231.20;2252.80;;;;;;5061727;28;19905;-76
2022/01/03 08:14:35;;;;;;;72.43;44.90;;;231.10;2252.80;;;;;;5085104;28;20027;-77
2022/01/03 08:17:01;;;;;;;72.55;43.38;;;231.10;2252.80;;;;;;5065281;28;20048;-80
2022/01/03 08:19:26;;;;;;;;;;;231.20;2252.80;;;;;;5069355;28;20358;-79
2022/01/03 08:21:52;;;;;;;70.22;44.17;;;231.30;2252.80;;;;;;5086904;28;19904;-77
2022/01/03 08:24:18;;;;;;;76.93;45.53;;;231.30;2252.80;;;;;;5066488;28;20023;-74
2022/01/03 08:26:44;;;;;;;;;;;231.30;2252.80;;;;;;5068309;28;20101;-76
2022/01/03 08:29:10;;;;;;;79.40;46.53;;;231.30;2252.80;;;;;;5084174;28;19996;-73
2022/01/03 08:31:37;;;;;;;71.38;45.53;;;231.30;2252.80;;;;;;5084321;28;20023;-75
2022/01/03 08:34:06;;;;;;;93.63;55.40;;;256.00;2252.80;;;;;;5085786;28;20028;-77
2022/01/03 08:36:32;;;;;;;93.35;58.40;;;256.20;2252.80;;;;;;5083490;28;20111;-74
2022/01/03 08:38:58;;;;;;;73.97;47.13;;;256.30;2252.80;;;;;;5065896;28;20468;-77
2022/01/03 08:41:24;;;;;;;73.93;44.78;;;256.20;2252.80;;;;;;5066041;28;20085;-77
2022/01/03 08:43:51;;;;;;;73.13;48.22;;;256.30;2252.80;;;;;;5089535;28;20090;-77
2022/01/03 08:46:17;;;;;;;77.82;49.80;;;256.50;2252.80;;;;;;5076534;28;20012;-76
2022/01/03 08:48:43;;;;;;;83.68;47.55;;;256.60;2252.80;;;;;;5091724;28;20016;-77
2022/01/03 08:51:09;;;;;;;83.80;49.42;;;256.60;2252.80;;;;;;5085289;28;20020;-74
2022/01/03 08:53:34;;;;;;;;;;;256.40;2252.80;;;;;;5084865;28;20017;-75
2022/01/03 08:56:00;;;;;;;84.18;50.72;;;256.40;2252.80;;;;;;5083342;28;19911;-77
2022/01/03 08:58:26;;;;;;;;;;;256.40;2252.80;;;;;;5086250;28;20108;-74
2022/01/03 09:00:52;;;;;;;98.30;58.78;;;256.10;2252.80;;;;;;5084537;28;19945;-77
2022/01/03 09:03:19;;;;;;;78.32;47.78;;;256.30;2252.80;;;;;;5084856;28;20012;-76
2022/01/03 09:05:45;;;;;;;84.25;50.03;;;256.10;2252.80;;;;;;5066977;28;20029;-78
2022/01/03 09:08:11;;;;;;;92.50;53.15;;;256.40;2252.80;;;;;;5084664;28;20031;-74
2022/01/03 09:10:40;;;;;;;90.25;53.25;;;256.50;2252.80;;;;;;5064225;28;20433;-74
2022/01/03 09:13:06;;;;;;;197.68;119.70;;;256.80;2252.80;;;;;;5085160;28;20421;-74
2022/01/03 09:15:32;;;;;;;184.13;103.22;;;256.70;2252.80;;;;;;5083329;28;20012;-77
2022/01/03 09:17:58;;;;;;;86.65;55.33;;;281.60;2278.40;;;;;;5091274;28;20403;-74
2022/01/03 09:20:24;;;;;;;83.25;52.75;;;281.80;2278.40;;;;;;5093902;28;20036;-76
2022/01/03 09:22:52;;;;;;;;;;;281.90;2278.40;;;;;;5094244;28;20093;-74
2022/01/03 09:30:33;;;;;;;66.78;40.55;;;282.10;2278.40;;;;;;5084860;28;20499;-74
2022/01/03 09:32:59;;;;;;;62.85;39.85;;;282.20;2278.40;;;;;;5081861;28;20039;-78
2022/01/03 09:35:25;;;;;;;62.53;41.72;;;282.30;2278.40;;;;;;5085013;28;20028;-78
2022/01/03 09:37:51;;;;;;;;;;;282.30;2278.40;;;;;;5067160;28;20036;-77
2022/01/03 09:40:17;;;;;;;62.20;39.20;;;282.40;2278.40;;;;;;5066537;28;20002;-77
2022/01/03 09:42:48;;;;;;;73.55;42.42;;;282.30;2278.40;;;;;;5081935;28;20051;-74
2022/01/03 09:45:15;;;;;;;73.03;45.78;;;282.40;2278.40;;;;;;5075558;28;20472;-78
2022/01/03 09:47:43;;;;;;;66.75;41.33;;;282.50;2278.40;;;;;;5073555;28;20016;-75
2022/01/03 09:50:11;;;;;;;57.80;38.42;;;282.50;2278.40;;;;;;5073643;28;20101;-75
2022/01/03 09:52:37;;;;;;;52.50;35.88;;;282.50;2278.40;;;;;;5073673;28;20124;-77
2022/01/03 09:55:04;;;;;;;55.47;36.45;;;307.20;2304.00;;;;;;5073578;28;20024;-74
2022/01/03 09:57:30;;;;;;;53.58;35.00;;;307.20;2304.00;;;;;;5055468;28;20403;-75
2022/01/03 09:59:59;;;;;;;60.75;37.92;;;307.30;2304.00;;;;;;5055664;28;20024;-74
2022/01/03 10:02:26;;;;;;;61.90;36.45;;;307.50;2304.00;;;;;;5073358;28;20143;-76
2022/01/03 10:04:52;;;;;;;52.25;34.25;;;307.60;2304.00;;;;;;5075973;28;20023;-76
2022/01/03 10:07:19;;;;;;;54.00;35.90;;;307.70;2304.00;;;;;;5065083;28;20507;-77
2022/01/03 10:09:46;;;;;;;53.40;33.50;;;307.80;2304.00;;;;;;5082050;28;20056;-76
2022/01/03 10:12:14;;;;;;;56.33;34.17;;;307.80;2304.00;;;;;;5056631;28;20033;-74
2022/01/03 10:14:41;;;;;;;60.60;40.67;;;307.80;2304.00;;;;;;5073201;28;20357;-73
2022/01/03 10:17:08;;;;;;;85.90;52.40;;;307.90;2304.00;;;;;;5055048;28;20032;-74
2022/01/03 10:20:00;;;;;;;64.32;41.55;;;308.00;2304.00;;;;;;5072993;28;20028;-74
2022/01/03 10:22:33;;;;;;;65.35;41.25;;;332.80;2329.60;;;;;;4972850;28;20043;-77
2022/01/03 10:25:24;;;;;;;68.60;41.20;;;332.80;2329.60;;;;;;4972471;28;20070;-76
2022/01/03 10:27:54;;;;;;;59.63;38.75;;;332.90;2329.60;;;;;;4972484;28;20435;-76
2022/01/03 10:30:31;;;;;;;50.95;34.63;;;333.10;2329.60;;;;;;4972751;28;20031;-77
2022/01/03 10:32:57;;;;;;;31.00;18.38;;;333.20;2329.60;;;;;;4972355;28;20027;-74
2022/01/03 10:35:23;;;;;;;31.10;18.40;;;333.10;2329.60;;;;;;4975017;28;20053;-78
2022/01/03 10:37:49;;;;;;;33.63;19.10;;;333.10;2329.60;;;;;;4960078;28;20054;-74
2022/01/03 10:40:31;;;;;;;34.50;20.60;;;333.20;2329.60;;;;;;4960049;28;20057;-76
2022/01/03 10:43:19;;;;;;;33.25;19.85;;;333.20;2329.60;;;;;;4976208;28;20033;-76
2022/01/03 10:45:46;;;;;;;38.70;22.92;;;333.20;2329.60;;;;;;4976013;28;20113;-75
2022/01/03 10:48:33;;;;;;;32.33;18.63;;;333.20;2329.60;;;;;;4959910;28;20458;-78
2022/01/03 10:51:01;;;;;;;36.53;21.40;;;333.20;2329.60;;;;;;4976192;28;20031;-75
2022/01/03 10:53:40;;;;;;;35.45;21.15;;;333.20;2329.60;;;;;;4976209;28;20122;-76
2022/01/03 10:56:30;;;;;;;39.00;24.15;;;333.20;2329.60;;;;;;4975970;28;20061;-74
2022/01/03 10:59:01;;;;;;;50.00;28.10;;;333.30;2329.60;;;;;;5007755;28;20123;-73
2022/01/03 11:01:30;;;;;;;40.28;23.83;;;333.30;2329.60;;;;;;5058692;28;20028;-75
2022/01/03 11:03:59;;;;;;;35.58;22.88;;;333.30;2329.60;;;;;;5076475;28;20021;-74
2022/01/03 11:06:50;;;;;;;33.95;20.90;;;333.40;2329.60;;;;;;5076501;28;20463;-74
2022/01/03 11:11:58;;;;;;;38.72;22.10;;;333.50;2329.60;;;;;;5076614;28;20098;-77
2022/01/03 11:14:42;;;;;;;26.50;16.08;;;333.60;2329.60;;;;;;5058533;28;20112;-75
2022/01/03 11:17:30;;;;;;;40.75;22.40;;;333.50;2329.60;;;;;;5076280;28;20090;-74
2022/01/03 11:19:59;;;;;;;30.98;17.85;;;333.60;2329.60;;;;;;5062900;28;20032;-73
2022/01/03 11:22:38;;;;;;;30.60;16.52;;;333.50;2329.60;;;;;;5086640;28;20372;-75
2022/01/03 11:25:06;;;;;;;27.88;18.08;;;333.50;2329.60;;;;;;5095267;28;20032;-75
2022/01/03 11:27:38;;;;;;;22.63;13.60;;;333.40;2329.60;;;;;;5095757;28;20097;-77
2022/01/03 11:30:05;;;;;;;20.80;13.15;;;333.40;2329.60;;;;;;5077004;28;20105;-75
2022/01/03 11:32:33;;;;;;;27.50;14.10;;;333.30;2329.60;;;;;;5095110;28;20020;-74
2022/01/03 11:35:01;;;;;;;23.13;14.10;;;333.40;2329.60;;;;;;5094894;28;20081;-74
2022/01/03 11:37:32;;;;;;;24.20;14.07;;;333.30;2329.60;;;;;;5076823;28;20131;-74
2022/01/03 11:40:00;;;;;;;29.60;15.73;;;333.30;2329.60;;;;;;5094957;28;20121;-74
2022/01/03 11:42:26;;;;;;;29.15;16.45;;;333.30;2329.60;;;;;;5095236;28;20540;-74
2022/01/03 11:44:53;;;;;;;27.08;17.00;;;333.30;2329.60;;;;;;5094795;28;20483;-74
2022/01/03 11:47:19;;;;;;;27.77;15.98;;;333.30;2329.60;;;;;;5094628;28;20108;-74
2022/01/03 11:49:45;;;;;;;33.25;20.50;;;333.30;2329.60;;;;;;5094711;28;20052;-75
2022/01/03 11:52:12;;;;;;;42.20;24.55;;;333.40;2329.60;;;;;;5094942;28;20024;-74
2022/01/03 11:54:39;;;;;;;47.80;25.92;;;333.40;2329.60;;;;;;5095061;28;20077;-74
2022/01/03 12:06:06;;;;;;;64.10;28.58;;;333.10;2329.60;;;;;;5029063;28;20428;-74
2022/01/03 12:08:36;;;;;;;49.95;24.15;;;333.30;2329.60;;;;;;5004135;28;20025;-74
2022/01/03 12:11:24;;;;;;;42.33;21.95;;;333.30;2329.60;;;;;;5022735;28;20125;-74
2022/01/03 12:13:56;;;;;;;32.03;19.23;;;333.30;2329.60;;;;;;5021592;28;20497;-75
2022/01/03 12:16:39;;;;;;;35.65;19.20;;;333.30;2329.60;;;;;;5024285;28;20026;-75
2022/01/03 12:19:07;;;;;;;30.55;16.98;;;333.40;2329.60;;;;;;5022639;28;20038;-75
2022/01/03 12:21:48;;;;;;;31.35;17.95;;;333.50;2329.60;;;;;;5021630;28;20024;-74
2022/01/03 12:24:26;;;;;;;29.33;16.00;;;333.60;2329.60;;;;;;5022765;28;20119;-74
2022/01/03 12:27:10;;;;;;;29.58;18.17;;;333.60;2329.60;;;;;;4979063;28;1297336;-75
2022/01/03 12:29:54;;;;;;;24.40;14.70;;;333.70;2329.60;;;;;;5022525;28;20037;-75
2022/01/03 12:32:22;;;;;;;22.15;13.95;;;358.40;2329.60;;;;;;5023781;28;20594;-74
2022/01/03 12:35:06;;;;;;;26.83;16.55;;;358.40;2329.60;;;;;;5011190;28;20045;-75
2022/01/03 12:37:34;;;;;;;24.08;14.43;;;358.40;2329.60;;;;;;5066482;28;20036;-75
2022/01/03 12:40:02;;;;;;;21.50;13.80;;;358.40;2329.60;;;;;;5086315;28;20025;-78
2022/01/03 12:42:51;;;;;;;21.25;11.13;;;333.70;2329.60;;;;;;5065503;28;20081;-75
2022/01/03 12:45:28;;;;;;;21.02;11.65;;;333.70;2329.60;;;;;;5084561;28;20051;-76